createdAt,value
2019-03-20T00:01:51.713Z,99.80
2019-03-20T00:04:21.359Z,98.70
2019-03-20T00:06:51.077Z,98.80
2019-03-20T00:09:20.807Z,99.10
2019-03-20T00:11:50.445Z,99.70
2019-03-20T00:14:20.055Z,99.70
2019-03-20T00:16:50.782Z,99.40
2019-03-20T00:19:20.411Z,99.50
2019-03-20T00:21:50.129Z,99.50
2019-03-20T00:24:19.841Z,99.90
2019-03-20T00:26:49.755Z,99.90
2019-03-20T00:29:19.541Z,99.90
2019-03-20T00:31:49.393Z,99.90
2019-03-20T00:34:19.173Z,99.90
2019-03-20T00:36:49.946Z,99.90
2019-03-20T00:39:19.723Z,99.90
2019-03-20T00:41:49.409Z,99.70
2019-03-20T00:44:19.136Z,99.40
2019-03-20T00:46:48.885Z,99.00
2019-03-20T00:49:18.750Z,99.10
2019-03-20T00:51:49.501Z,99.40
2019-03-20T00:54:19.246Z,99.40
2019-03-20T00:56:48.997Z,99.70
2019-03-20T00:59:18.741Z,99.90
2019-03-20T01:01:48.657Z,99.90
2019-03-20T01:04:18.790Z,99.90
2019-03-20T01:06:48.705Z,99.90
2019-03-20T01:09:18.649Z,99.90
2019-03-20T01:26:23.560Z,99.80
2019-03-20T01:28:53.392Z,99.10
2019-03-20T01:31:24.197Z,98.90
2019-03-20T01:33:55.068Z,99.40
2019-03-20T01:36:25.918Z,99.00
2019-03-20T01:38:59.818Z,99.90
2019-03-20T01:41:38.071Z,99.90
2019-03-20T01:44:11.534Z,99.90
2019-03-20T01:46:41.307Z,99.90
2019-03-20T01:49:11.078Z,99.90
2019-03-20T01:51:40.974Z,99.90
2019-03-20T01:54:10.651Z,99.90
2019-03-20T01:56:40.368Z,99.90
2019-03-20T01:59:10.044Z,99.90
2019-03-20T02:01:39.831Z,99.90
2019-03-20T02:04:09.509Z,99.90
2019-03-20T02:06:39.271Z,99.90
2019-03-20T02:09:09.025Z,99.90
2019-03-20T02:11:38.736Z,99.90
2019-03-20T02:14:08.624Z,99.90
2019-03-20T02:16:38.337Z,99.90
2019-03-20T02:19:07.973Z,99.90
2019-03-20T02:21:37.605Z,99.90
2019-03-20T02:24:07.227Z,99.90
2019-03-20T02:26:36.826Z,99.90
2019-03-20T02:29:06.467Z,99.90
2019-03-20T02:31:37.049Z,99.90
2019-03-20T02:34:06.649Z,99.90
2019-03-20T02:36:36.261Z,99.90
2019-03-20T02:39:07.442Z,99.90
2019-03-20T02:41:37.003Z,99.90
2019-03-20T02:44:06.593Z,99.90
2019-03-20T02:46:36.165Z,99.90
2019-03-20T02:49:05.819Z,99.90
2019-03-20T02:51:35.435Z,99.90
2019-03-20T02:54:05.861Z,99.90
2019-03-20T02:56:35.715Z,99.90
2019-03-20T02:59:05.650Z,99.90
2019-03-20T03:01:35.358Z,99.90
2019-03-20T03:04:05.098Z,99.90
2019-03-20T03:06:34.729Z,99.90
2019-03-20T03:09:06.289Z,99.90
2019-03-20T03:11:35.891Z,99.90
2019-03-20T03:14:05.549Z,99.90
2019-03-20T03:16:35.131Z,99.90
2019-03-20T03:19:04.748Z,99.90
2019-03-20T03:21:34.342Z,99.90
2019-03-20T03:24:03.911Z,99.90
2019-03-20T03:26:33.512Z,99.90
2019-03-20T03:29:03.134Z,99.90
2019-03-20T03:31:32.706Z,99.50
2019-03-20T03:34:02.273Z,99.70
2019-03-20T03:36:31.873Z,99.70
2019-03-20T03:39:02.579Z,99.60
2019-03-20T03:41:32.143Z,99.90
2019-03-20T03:44:01.749Z,99.90
2019-03-20T03:46:31.397Z,99.90
2019-03-20T03:49:01.034Z,99.90
2019-03-20T03:51:30.720Z,99.90
2019-03-20T03:54:00.408Z,99.90
2019-03-20T03:56:30.021Z,99.90
2019-03-20T03:58:59.617Z,99.90
2019-03-20T04:01:29.209Z,99.90
2019-03-20T04:03:58.779Z,99.90
2019-03-20T04:06:35.353Z,99.90
2019-03-20T04:09:00.651Z,99.90
2019-03-20T04:11:31.869Z,99.90
2019-03-20T04:14:01.494Z,99.90
2019-03-20T04:16:31.073Z,99.90
2019-03-20T04:19:00.725Z,99.90
2019-03-20T04:21:30.308Z,99.90
2019-03-20T04:23:59.902Z,99.90
2019-03-20T04:26:29.466Z,99.90
2019-03-20T04:28:59.090Z,99.90
2019-03-20T04:31:28.761Z,99.90
2019-03-20T04:33:58.396Z,99.90
2019-03-20T04:36:28.009Z,99.90
2019-03-20T04:38:57.601Z,99.90
2019-03-20T04:41:27.177Z,99.90
2019-03-20T04:43:56.766Z,99.90
2019-03-20T04:46:27.393Z,99.90
2019-03-20T04:48:56.940Z,99.90
2019-03-20T04:51:26.537Z,99.90
2019-03-20T04:53:56.177Z,99.90
2019-03-20T04:56:25.744Z,99.90
2019-03-20T04:58:55.382Z,99.90
2019-03-20T05:01:24.937Z,99.90
2019-03-20T05:03:54.576Z,99.90
2019-03-20T05:06:24.237Z,99.90
2019-03-20T05:08:54.788Z,99.90
2019-03-20T05:11:24.594Z,99.90
2019-03-20T05:13:54.176Z,99.90
2019-03-20T05:16:23.820Z,99.90
2019-03-20T05:18:53.368Z,99.90
2019-03-20T05:21:22.983Z,99.90
2019-03-20T05:23:52.548Z,99.90
2019-03-20T05:26:23.174Z,99.90
2019-03-20T05:28:52.787Z,99.90
2019-03-20T05:31:22.368Z,99.90
2019-03-20T05:33:51.935Z,99.90
2019-03-20T05:36:21.561Z,99.90
2019-03-20T05:38:51.221Z,99.90
2019-03-20T05:41:20.829Z,99.90
2019-03-20T05:43:50.440Z,99.90
2019-03-20T05:46:19.991Z,99.90
2019-03-20T05:48:49.549Z,99.90
2019-03-20T05:51:19.129Z,99.90
2019-03-20T05:53:49.250Z,99.90
2019-03-20T05:56:18.934Z,99.90
2019-03-20T05:58:48.617Z,99.90
2019-03-20T06:01:18.222Z,99.90
2019-03-20T06:03:47.874Z,99.90
2019-03-20T06:06:17.470Z,99.90
2019-03-20T06:08:47.058Z,99.90
2019-03-20T06:11:16.636Z,99.90
2019-03-20T06:13:46.225Z,99.90
2019-03-20T06:16:15.829Z,99.90
2019-03-20T06:18:45.396Z,99.90
2019-03-20T06:21:14.994Z,99.90
2019-03-20T06:23:44.588Z,99.90
2019-03-20T06:26:14.144Z,99.90
2019-03-20T06:28:43.759Z,99.90
2019-03-20T06:31:13.325Z,99.90
2019-03-20T06:33:43.966Z,99.90
2019-03-20T06:36:14.647Z,99.90
2019-03-20T06:38:44.204Z,99.90
2019-03-20T06:41:13.808Z,99.90
2019-03-20T06:43:44.768Z,99.90
2019-03-20T06:46:14.338Z,99.90
2019-03-20T06:48:43.965Z,99.60
2019-03-20T06:51:13.545Z,99.80
2019-03-20T06:53:43.135Z,99.90
2019-03-20T06:56:12.719Z,99.60
2019-03-20T06:58:42.292Z,99.10
2019-03-20T07:01:23.770Z,99.90
2019-03-20T07:04:15.015Z,99.90
2019-03-20T07:07:09.639Z,99.90
2019-03-20T07:10:19.551Z,99.90
2019-03-20T07:12:49.259Z,99.60
2019-03-20T07:15:18.830Z,99.20
2019-03-20T07:17:48.476Z,98.90
2019-03-20T07:20:18.190Z,99.30
2019-03-20T07:22:47.821Z,99.10
2019-03-20T07:25:17.445Z,98.90
2019-03-20T07:27:47.165Z,99.00
2019-03-20T07:30:16.774Z,97.90
2019-03-20T08:01:04.005Z,97.60
2019-03-20T08:03:33.823Z,97.40
2019-03-20T08:06:03.563Z,96.80
2019-03-20T08:08:33.186Z,96.90
2019-03-20T08:11:02.785Z,96.20
2019-03-20T08:13:33.417Z,95.60
2019-03-20T08:16:04.013Z,95.70
2019-03-20T08:18:33.866Z,95.40
2019-03-20T08:21:03.549Z,94.70
2019-03-20T08:23:33.176Z,94.50
2019-03-20T08:26:02.775Z,93.50
2019-03-20T08:28:32.333Z,93.50
2019-03-20T08:31:01.949Z,93.30
2019-03-20T08:33:32.581Z,93.80
2019-03-20T08:36:02.234Z,93.80
2019-03-20T08:38:31.856Z,92.90
2019-03-20T08:41:01.432Z,92.90
2019-03-20T08:43:31.054Z,93.20
2019-03-20T08:46:00.836Z,92.80
2019-03-20T08:48:30.462Z,91.70
2019-03-20T08:51:00.184Z,92.20
2019-03-20T08:53:29.913Z,91.70
2019-03-20T08:55:59.555Z,91.70
2019-03-20T08:58:29.242Z,92.20
2019-03-20T09:00:58.962Z,91.50
2019-03-20T09:03:28.722Z,91.50
2019-03-20T09:05:58.395Z,91.60
2019-03-20T09:08:29.673Z,91.30
2019-03-20T09:10:59.665Z,90.30
2019-03-20T09:13:29.362Z,90.00
2019-03-20T09:15:58.947Z,90.30
2019-03-20T09:18:28.612Z,90.10
2019-03-20T09:20:59.406Z,90.60
2019-03-20T09:23:30.092Z,90.00
2019-03-20T09:25:59.890Z,89.60
2019-03-20T09:28:29.627Z,89.10
2019-03-20T09:30:59.343Z,89.10
2019-03-20T09:33:29.046Z,87.30
2019-03-20T09:35:58.710Z,88.40
2019-03-20T09:38:28.490Z,89.20
2019-03-20T09:40:58.135Z,87.60
2019-03-20T09:43:27.790Z,85.80
2019-03-20T09:45:57.444Z,83.10
2019-03-20T09:48:27.066Z,87.80
2019-03-20T09:50:56.698Z,87.50
2019-03-20T09:53:26.376Z,82.70
2019-03-20T09:55:56.005Z,84.70
2019-03-20T09:58:25.662Z,85.60
2019-03-20T10:00:55.314Z,84.00
2019-03-20T10:03:24.897Z,83.00
2019-03-20T10:05:54.609Z,86.00
2019-03-20T10:08:24.486Z,83.90
2019-03-20T10:10:54.193Z,83.10
2019-03-20T10:13:23.990Z,88.60
2019-03-20T10:15:53.680Z,86.20
2019-03-20T10:18:23.330Z,87.00
2019-03-20T10:20:53.010Z,86.80
2019-03-20T10:23:22.828Z,83.60
2019-03-20T10:25:52.525Z,82.80
2019-03-20T10:28:22.184Z,85.90
2019-03-20T10:30:53.656Z,87.20
2019-03-20T10:33:23.342Z,82.80
2019-03-20T10:35:53.072Z,84.60
2019-03-20T10:38:22.853Z,82.20
2019-03-20T10:40:52.784Z,83.60
2019-03-20T10:43:22.490Z,84.30
2019-03-20T10:45:52.245Z,83.40
2019-03-20T10:48:21.934Z,84.40
2019-03-20T10:50:51.629Z,78.50
2019-03-20T10:53:21.505Z,84.90
2019-03-20T10:55:51.947Z,81.80
2019-03-20T10:58:21.845Z,83.80
2019-03-20T11:00:51.530Z,80.30
2019-03-20T11:03:21.296Z,80.90
2019-03-20T11:05:51.004Z,78.40
2019-03-20T11:08:20.758Z,76.80
2019-03-20T11:10:50.568Z,78.70
2019-03-20T11:13:20.245Z,81.50
2019-03-20T11:15:50.138Z,78.50
2019-03-20T11:18:21.454Z,79.40
2019-03-20T11:20:53.510Z,79.30
2019-03-20T11:23:24.723Z,79.80
2019-03-20T11:25:54.660Z,81.20
2019-03-20T11:28:24.605Z,78.20
2019-03-20T11:30:54.494Z,82.90
2019-03-20T11:33:24.551Z,81.40
2019-03-20T11:35:55.967Z,81.00
2019-03-20T11:38:26.140Z,79.20
2019-03-20T11:40:56.462Z,80.70
2019-03-20T11:43:28.150Z,78.40
2019-03-20T11:45:58.199Z,82.10
2019-03-20T11:48:28.244Z,83.60
2019-03-20T11:50:58.483Z,81.50
2019-03-20T11:53:28.312Z,80.70
2019-03-20T11:55:58.418Z,77.50
2019-03-20T11:58:28.355Z,79.80
2019-03-20T12:00:58.389Z,79.50
2019-03-20T12:03:28.149Z,82.20
2019-03-20T12:05:57.976Z,82.40
2019-03-20T12:08:30.738Z,77.60
2019-03-20T12:11:00.821Z,79.80
2019-03-20T12:13:31.015Z,79.10
2019-03-20T12:16:06.518Z,80.40
2019-03-20T12:18:36.474Z,77.80
2019-03-20T12:21:06.734Z,76.40
2019-03-20T12:23:36.952Z,76.50
2019-03-20T12:26:07.133Z,80.10
2019-03-20T12:28:36.982Z,80.70
2019-03-20T12:31:06.904Z,82.70
2019-03-20T12:33:36.808Z,79.90
2019-03-20T12:36:06.820Z,78.50
2019-03-20T12:38:36.573Z,75.80
2019-03-20T12:41:07.454Z,77.40
2019-03-20T12:43:37.097Z,78.10
2019-03-20T12:46:06.745Z,76.80
2019-03-20T12:48:36.560Z,77.30
2019-03-20T12:51:06.377Z,79.20
2019-03-20T12:53:36.415Z,77.20
2019-03-20T12:56:06.469Z,78.80
2019-03-20T12:58:36.215Z,78.60
2019-03-20T13:01:06.760Z,79.00
2019-03-20T13:03:36.629Z,74.60
2019-03-20T13:06:07.957Z,79.30
2019-03-20T13:08:38.121Z,80.00
2019-03-20T13:11:08.289Z,73.80
2019-03-20T13:13:42.042Z,76.10
2019-03-20T13:16:11.818Z,75.80
2019-03-20T13:18:41.808Z,74.50
2019-03-20T13:21:12.188Z,76.10
2019-03-20T13:23:42.937Z,77.60
2019-03-20T13:26:12.815Z,80.90
2019-03-20T13:28:42.786Z,76.10
2019-03-20T13:31:15.612Z,78.00
2019-03-20T13:33:45.397Z,79.40
2019-03-20T13:36:16.046Z,75.00
2019-03-20T13:38:46.060Z,77.50
2019-03-20T13:41:16.040Z,78.10
2019-03-20T13:43:45.904Z,73.80
2019-03-20T13:46:15.894Z,76.00
2019-03-20T13:48:45.628Z,73.60
2019-03-20T13:51:15.418Z,73.40
2019-03-20T13:53:45.568Z,72.10
2019-03-20T13:56:15.522Z,73.60
2019-03-20T13:58:45.317Z,74.30
2019-03-20T14:01:17.564Z,72.70
2019-03-20T14:03:47.541Z,72.60
2019-03-20T14:06:21.073Z,73.20
2019-03-20T14:08:50.890Z,74.70
2019-03-20T14:11:20.677Z,72.30
2019-03-20T14:13:50.619Z,74.30
2019-03-20T14:16:20.454Z,73.30
2019-03-20T14:18:50.083Z,74.50
2019-03-20T14:21:19.753Z,75.30
2019-03-20T14:23:49.455Z,73.80
2019-03-20T14:26:19.178Z,71.30
2019-03-20T14:28:48.828Z,72.80
2019-03-20T14:31:18.595Z,74.70
2019-03-20T14:33:48.407Z,74.90
2019-03-20T14:36:18.313Z,71.30
2019-03-20T14:38:48.189Z,74.70
2019-03-20T14:41:21.827Z,76.90
2019-03-20T14:43:49.347Z,77.10
2019-03-20T14:46:22.043Z,76.10
2019-03-20T14:48:51.867Z,76.60
2019-03-20T14:51:21.703Z,77.10
2019-03-20T14:53:53.599Z,77.10
2019-03-20T14:56:29.081Z,75.20
2019-03-20T14:58:58.831Z,74.40
2019-03-20T15:01:28.541Z,76.80
2019-03-20T15:03:59.596Z,78.70
2019-03-20T15:06:29.518Z,77.30
2019-03-20T15:08:59.312Z,77.80
2019-03-20T15:11:29.304Z,75.70
2019-03-20T15:14:00.705Z,77.60
2019-03-20T15:16:32.260Z,77.60
2019-03-20T15:19:02.111Z,81.90
2019-03-20T15:21:31.906Z,78.10
2019-03-20T15:24:04.204Z,78.90
2019-03-20T15:26:33.931Z,76.90
2019-03-20T15:29:04.221Z,78.30
2019-03-20T15:31:33.870Z,76.00
2019-03-20T15:34:03.535Z,78.40
2019-03-20T15:36:33.338Z,78.30
2019-03-20T15:39:03.260Z,80.90
2019-03-20T15:41:34.764Z,76.60
2019-03-20T15:44:04.501Z,76.70
2019-03-20T15:46:34.210Z,78.00
2019-03-20T15:49:04.171Z,79.70
2019-03-20T15:51:34.778Z,80.80
2019-03-20T15:54:04.582Z,78.90
2019-03-20T15:56:34.498Z,77.90
2019-03-20T15:59:04.260Z,78.80
2019-03-20T16:01:33.987Z,80.40
2019-03-20T16:04:05.096Z,78.80
2019-03-20T16:06:35.140Z,79.20
2019-03-20T16:09:07.450Z,78.40
2019-03-20T16:11:40.675Z,78.30
2019-03-20T16:14:10.618Z,79.60
2019-03-20T16:16:46.223Z,78.70
2019-03-20T16:19:16.052Z,78.50
2019-03-20T16:21:46.200Z,79.00
2019-03-20T16:24:16.232Z,78.10
2019-03-20T16:26:46.068Z,80.60
2019-03-20T16:29:15.840Z,77.80
2019-03-20T16:31:45.837Z,78.70
2019-03-20T16:34:18.517Z,77.90
2019-03-20T16:36:50.210Z,78.70
2019-03-20T16:39:22.541Z,80.00
2019-03-20T16:41:57.852Z,79.60
2019-03-20T16:44:27.898Z,81.50
2019-03-20T16:46:59.476Z,80.90
2019-03-20T16:49:31.102Z,82.60
2019-03-20T16:52:01.664Z,80.80
2019-03-20T16:54:31.733Z,82.20
2019-03-20T16:57:01.606Z,81.50
2019-03-20T16:59:31.268Z,82.50
2019-03-20T17:02:00.983Z,82.30
2019-03-20T17:04:30.737Z,83.50
2019-03-20T17:07:00.431Z,83.70
2019-03-20T17:09:30.137Z,83.40
2019-03-20T17:11:59.748Z,83.50
2019-03-20T17:14:29.356Z,83.10
2019-03-20T17:16:58.966Z,83.50
2019-03-20T17:19:28.606Z,84.20
2019-03-20T17:22:00.167Z,83.40
2019-03-20T17:24:29.788Z,83.50
2019-03-20T17:27:00.403Z,84.20
2019-03-20T17:29:30.060Z,84.80
2019-03-20T17:31:59.677Z,84.30
2019-03-20T17:34:30.616Z,84.90
2019-03-20T17:37:00.591Z,85.40
2019-03-20T17:39:30.393Z,84.90
2019-03-20T17:42:00.208Z,84.90
2019-03-20T17:44:29.946Z,84.90
2019-03-20T17:46:59.561Z,87.50
2019-03-20T17:49:29.297Z,86.30
2019-03-20T17:51:58.939Z,86.70
2019-03-20T17:54:29.699Z,85.40
2019-03-20T17:56:59.582Z,85.70
2019-03-20T17:59:29.314Z,86.30
2019-03-20T18:01:59.015Z,86.80
2019-03-20T18:04:28.710Z,85.90
2019-03-20T18:06:58.408Z,86.70
2019-03-20T18:09:28.015Z,87.50
2019-03-20T18:11:57.672Z,87.30
2019-03-20T18:14:27.282Z,87.90
2019-03-20T18:16:56.937Z,87.00
2019-03-20T18:19:26.509Z,86.90
2019-03-20T18:21:57.067Z,86.80
2019-03-20T18:24:26.693Z,87.30
2019-03-20T18:26:56.302Z,88.00
2019-03-20T18:29:25.915Z,87.90
2019-03-20T18:31:55.505Z,86.80
2019-03-20T18:34:25.175Z,86.90
2019-03-20T18:36:54.871Z,88.30
2019-03-20T18:39:24.629Z,88.80
2019-03-20T18:41:58.004Z,88.50
2019-03-20T18:44:25.908Z,89.10
2019-03-20T18:46:55.589Z,90.00
2019-03-20T18:49:25.265Z,90.90
2019-03-20T18:51:55.137Z,91.50
2019-03-20T18:54:24.881Z,92.00
2019-03-20T18:56:54.702Z,91.80
2019-03-20T18:59:24.574Z,92.00
2019-03-20T19:01:54.295Z,91.70
2019-03-20T19:04:23.986Z,91.90
2019-03-20T19:06:53.623Z,92.00
2019-03-20T19:09:23.477Z,92.10
2019-03-20T19:11:53.172Z,92.20
2019-03-20T19:14:22.832Z,92.50
2019-03-20T19:16:52.542Z,92.90
2019-03-20T19:19:22.294Z,92.90
2019-03-20T19:21:52.205Z,93.70
2019-03-20T19:24:22.443Z,93.60
2019-03-20T19:26:52.450Z,93.60
2019-03-20T19:29:22.436Z,93.50
2019-03-20T19:31:52.175Z,93.20
2019-03-20T19:34:22.612Z,92.80
2019-03-20T19:36:52.250Z,93.00
2019-03-20T19:39:21.914Z,93.10
2019-03-20T19:41:51.670Z,92.60
2019-03-20T19:44:21.336Z,92.20
2019-03-20T19:46:51.441Z,92.10
2019-03-20T19:49:21.154Z,92.20
2019-03-20T19:51:50.848Z,92.50
2019-03-20T19:54:20.615Z,92.20
2019-03-20T19:56:50.417Z,92.20
2019-03-20T19:59:20.148Z,92.40
2019-03-20T20:01:49.781Z,92.20
2019-03-20T20:04:23.064Z,92.20
2019-03-20T20:06:52.760Z,91.80
2019-03-20T23:34:11.798Z,99.90
